PWSweather.com
Personal Weather Stations
Station Observations
270882
Flassian, LimouxFR 11300

FlassianLimouxFR 11300

Lat: 43.071798, Lon: 2.217292

Elevation: 165

Station Type: Oregon WMR 200

http://www.meteolimoux.fr

Latest ConditionsUpdated 5:07:12 AM GMT+01:01 Wednesday, Aug 21, 2019
Currently Today's Max Today's Min Today's Average
Temperature 54.1°F12.3°C 58.3°F14.6°C 54.1°F12.3°C 55.9°F13.3°C
Dew Point 53.6°F12.0°C 56.5°F13.6°C 53.2°F11.8°C 54.9°F12.7°C
Winds Calm Calm Calm -Calm - - Calm Calm
Wind Gusts -- -- - -
Humidity 98% 98% 93% 96%
Pressure 30.22 in1023.4 mb 30.28 in1025.4 mb 30.22 in1023.4 mb -
Hour Temp Dew Point Humidity Winds Wind Gusts Pressure Precip Precip Rate Daily Precip Total
05:07 AM 54.1°F12.3°C 53.6°F12.0°C 98% Calm Calm -- 30.22 in1023.4 mb - 0.00 in0.0 mm 0.00 in0.0 mm
05:02 AM 54.1°F12.3°C 53.6°F12.0°C 98% Calm Calm -- 30.22 in1023.4 mb - 0.00 in0.0 mm 0.00 in0.0 mm
04:57 AM 54.1°F12.3°C 53.6°F12.0°C 98% Calm Calm -- 30.22 in1023.4 mb - 0.00 in0.0 mm 0.00 in0.0 mm
04:52 AM 54.3°F12.4°C 53.8°F12.1°C 98% Calm Calm -- 30.22 in1023.4 mb - 0.00 in0.0 mm 0.00 in0.0 mm
04:47 AM 54.1°F12.3°C 53.6°F12.0°C 98% Calm Calm -- 30.22 in1023.4 mb - 0.00 in0.0 mm 0.00 in0.0 mm
04:42 AM 54.1°F12.3°C 53.6°F12.0°C 98% Calm Calm -- 30.22 in1023.4 mb - 0.00 in0.0 mm 0.00 in0.0 mm
04:37 AM 54.1°F12.3°C 53.2°F11.8°C 97% Calm Calm -- 30.22 in1023.4 mb - 0.00 in0.0 mm 0.00 in0.0 mm
04:32 AM 54.1°F12.3°C 53.2°F11.8°C 97% Calm Calm -- 30.22 in1023.4 mb - 0.00 in0.0 mm 0.00 in0.0 mm
04:27 AM 54.1°F12.3°C 53.2°F11.8°C 97% Calm Calm -- 30.22 in1023.4 mb - 0.00 in0.0 mm 0.00 in0.0 mm
04:22 AM 54.1°F12.3°C 53.2°F11.8°C 97% Calm Calm -- 30.22 in1023.4 mb - 0.00 in0.0 mm 0.00 in0.0 mm
04:17 AM 54.5°F12.5°C 54.0°F12.2°C 98% Calm Calm -- 30.22 in1023.4 mb - 0.00 in0.0 mm 0.00 in0.0 mm
04:12 AM 54.5°F12.5°C 53.6°F12.0°C 97% Calm Calm -- 30.22 in1023.4 mb - 0.00 in0.0 mm 0.00 in0.0 mm
04:07 AM 54.5°F12.5°C 53.6°F12.0°C 97% Calm Calm -- 30.22 in1023.4 mb - 0.00 in0.0 mm 0.00 in0.0 mm
04:02 AM 54.7°F12.6°C 54.1°F12.3°C 98% Calm Calm -- 30.22 in1023.4 mb - 0.00 in0.0 mm 0.00 in0.0 mm
03:57 AM 54.7°F12.6°C 54.1°F12.3°C 98% Calm Calm -- 30.22 in1023.4 mb - 0.00 in0.0 mm 0.00 in0.0 mm
03:52 AM 54.9°F12.7°C 54.3°F12.4°C 98% Calm Calm -- 30.22 in1023.4 mb - 0.00 in0.0 mm 0.00 in0.0 mm
03:47 AM 55.0°F12.8°C 54.5°F12.5°C 98% Calm Calm -- 30.22 in1023.4 mb - 0.00 in0.0 mm 0.00 in0.0 mm
03:42 AM 55.2°F12.9°C 54.7°F12.6°C 98% Calm Calm -- 30.22 in1023.4 mb - 0.00 in0.0 mm 0.00 in0.0 mm
03:37 AM 55.2°F12.9°C 54.7°F12.6°C 98% Calm Calm -- 30.22 in1023.4 mb - 0.00 in0.0 mm 0.00 in0.0 mm
03:32 AM 55.2°F12.9°C 54.7°F12.6°C 98% Calm Calm -- 30.22 in1023.4 mb - 0.00 in0.0 mm 0.00 in0.0 mm
03:27 AM 55.4°F13.0°C 54.9°F12.7°C 98% Calm Calm -- 30.22 in1023.4 mb - 0.00 in0.0 mm 0.00 in0.0 mm
03:22 AM 55.6°F13.1°C 55.0°F12.8°C 98% Calm Calm -- 30.22 in1023.4 mb - 0.00 in0.0 mm 0.00 in0.0 mm
03:17 AM 55.6°F13.1°C 55.0°F12.8°C 98% Calm Calm -- 30.22 in1023.4 mb - 0.00 in0.0 mm 0.00 in0.0 mm
03:12 AM 55.8°F13.2°C 55.2°F12.9°C 98% Calm Calm -- 30.22 in1023.4 mb - 0.00 in0.0 mm 0.00 in0.0 mm
03:07 AM 55.8°F13.2°C 55.2°F12.9°C 98% Calm Calm -- 30.22 in1023.4 mb - 0.00 in0.0 mm 0.00 in0.0 mm
03:02 AM 55.9°F13.3°C 55.4°F13.0°C 98% Calm Calm -- 30.22 in1023.4 mb - 0.00 in0.0 mm 0.00 in0.0 mm
02:57 AM 55.8°F13.2°C 55.2°F12.9°C 98% Calm Calm -- 30.22 in1023.4 mb - 0.00 in0.0 mm 0.00 in0.0 mm
02:52 AM 55.6°F13.1°C 54.5°F12.5°C 96% Calm Calm -- 30.25 in1024.4 mb - 0.00 in0.0 mm 0.00 in0.0 mm
02:47 AM 55.6°F13.1°C 54.7°F12.6°C 97% Calm Calm -- 30.25 in1024.4 mb - 0.00 in0.0 mm 0.00 in0.0 mm
02:42 AM 55.8°F13.2°C 54.9°F12.7°C 97% Calm Calm -- 30.25 in1024.4 mb - 0.00 in0.0 mm 0.00 in0.0 mm
02:37 AM 55.9°F13.3°C 55.0°F12.8°C 97% Calm Calm -- 30.25 in1024.4 mb - 0.00 in0.0 mm 0.00 in0.0 mm
02:32 AM 55.9°F13.3°C 55.0°F12.8°C 97% Calm Calm -- 30.25 in1024.4 mb - 0.00 in0.0 mm 0.00 in0.0 mm
02:27 AM 56.1°F13.4°C 55.2°F12.9°C 97% Calm Calm -- 30.25 in1024.4 mb - 0.00 in0.0 mm 0.00 in0.0 mm
02:22 AM 56.3°F13.5°C 55.2°F12.9°C 96% Calm Calm -- 30.25 in1024.4 mb - 0.00 in0.0 mm 0.00 in0.0 mm
02:17 AM 56.3°F13.5°C 55.2°F12.9°C 96% Calm Calm -- 30.25 in1024.4 mb - 0.00 in0.0 mm 0.00 in0.0 mm
02:12 AM 56.3°F13.5°C 55.4°F13.0°C 97% Calm Calm -- 30.25 in1024.4 mb - 0.00 in0.0 mm 0.00 in0.0 mm
02:07 AM 56.3°F13.5°C 55.4°F13.0°C 97% Calm Calm -- 30.25 in1024.4 mb - 0.00 in0.0 mm 0.00 in0.0 mm
02:02 AM 56.3°F13.5°C 55.2°F12.9°C 96% Calm Calm -- 30.25 in1024.4 mb - 0.00 in0.0 mm 0.00 in0.0 mm
01:57 AM 56.3°F13.5°C 55.2°F12.9°C 96% Calm Calm -- 30.25 in1024.4 mb - 0.00 in0.0 mm 0.00 in0.0 mm
01:52 AM 56.3°F13.5°C 55.2°F12.9°C 96% Calm Calm -- 30.25 in1024.4 mb - 0.00 in0.0 mm 0.00 in0.0 mm
01:47 AM 56.3°F13.5°C 54.9°F12.7°C 95% Calm Calm -- 30.25 in1024.4 mb - 0.00 in0.0 mm 0.00 in0.0 mm
01:42 AM 56.5°F13.6°C 55.0°F12.8°C 95% Calm Calm -- 30.25 in1024.4 mb - 0.00 in0.0 mm 0.00 in0.0 mm
01:37 AM 56.5°F13.6°C 55.0°F12.8°C 95% Calm Calm -- 30.25 in1024.4 mb - 0.00 in0.0 mm 0.00 in0.0 mm
01:32 AM 56.7°F13.7°C 55.2°F12.9°C 95% Calm Calm -- 30.25 in1024.4 mb - 0.00 in0.0 mm 0.00 in0.0 mm
01:27 AM 56.7°F13.7°C 55.2°F12.9°C 95% Calm Calm -- 30.25 in1024.4 mb - 0.00 in0.0 mm 0.00 in0.0 mm
01:22 AM 56.7°F13.7°C 55.2°F12.9°C 95% Calm Calm -- 30.25 in1024.4 mb - 0.00 in0.0 mm 0.00 in0.0 mm
01:17 AM 56.8°F13.8°C 55.4°F13.0°C 95% Calm Calm -- 30.25 in1024.4 mb - 0.00 in0.0 mm 0.00 in0.0 mm
01:12 AM 56.8°F13.8°C 55.4°F13.0°C 95% Calm Calm -- 30.25 in1024.4 mb - 0.00 in0.0 mm 0.00 in0.0 mm
01:07 AM 57.0°F13.9°C 55.6°F13.1°C 95% Calm Calm -- 30.28 in1025.4 mb - 0.00 in0.0 mm 0.00 in0.0 mm
01:02 AM 57.2°F14.0°C 55.6°F13.1°C 94% Calm Calm -- 30.28 in1025.4 mb - 0.00 in0.0 mm 0.00 in0.0 mm
12:57 AM 57.2°F14.0°C 55.6°F13.1°C 94% Calm Calm -- 30.28 in1025.4 mb - 0.00 in0.0 mm 0.00 in0.0 mm
12:52 AM 57.2°F14.0°C 55.2°F12.9°C 93% Calm Calm -- 30.25 in1024.4 mb - 0.00 in0.0 mm 0.00 in0.0 mm
12:47 AM 57.2°F14.0°C 55.6°F13.1°C 94% Calm Calm -- 30.25 in1024.4 mb - 0.00 in0.0 mm 0.00 in0.0 mm
12:42 AM 57.4°F14.1°C 55.4°F13.0°C 93% Calm Calm -- 30.25 in1024.4 mb - 0.00 in0.0 mm 0.00 in0.0 mm
12:37 AM 57.6°F14.2°C 55.8°F13.2°C 94% Calm Calm -- 30.28 in1025.4 mb - 0.00 in0.0 mm 0.00 in0.0 mm
12:32 AM 57.6°F14.2°C 55.8°F13.2°C 94% Calm Calm -- 30.28 in1025.4 mb - 0.00 in0.0 mm 0.00 in0.0 mm
12:27 AM 57.7°F14.3°C 55.9°F13.3°C 94% Calm Calm -- 30.28 in1025.4 mb - 0.00 in0.0 mm 0.00 in0.0 mm
12:22 AM 57.7°F14.3°C 55.8°F13.2°C 93% Calm Calm -- 30.28 in1025.4 mb - 0.00 in0.0 mm 0.00 in0.0 mm
12:17 AM 57.7°F14.3°C 55.8°F13.2°C 93% Calm Calm -- 30.28 in1025.4 mb - 0.00 in0.0 mm 0.00 in0.0 mm
12:12 AM 57.9°F14.4°C 56.1°F13.4°C 94% Calm Calm -- 30.28 in1025.4 mb - 0.00 in0.0 mm 0.00 in0.0 mm
12:07 AM 58.3°F14.6°C 56.5°F13.6°C 94% Calm Calm -- 30.28 in1025.4 mb - 0.00 in0.0 mm 0.00 in0.0 mm
12:02 AM 58.3°F14.6°C 56.3°F13.5°C 93% Calm Calm -- 30.28 in1025.4 mb - 0.00 in0.0 mm 0.00 in0.0 mm